EA1CZ-2
43.05.15N 006.33.28W
IN63RC aprs.fi
zuletzt gehoert:
2022-12-01T03:19:40Z
zuerst gehoert:
2020-02-10T15:27:12Z

APRS IN63RC, 2 Stunde(n), EA1CZ-2 [05:29:40, 0s].
EA1BVF 43.15.22N 006.39.57WIN63QG 20.674km 335°NNW04:24:29ZDigipeater en pruebas Radioclub Cangas.(3EA1BVF-3)
LEBO 43.01.62N 006.53.05WIN63NA 27.685km 257°WSW04:00:04ZHelipuerto de Ibias: LEAS 010300Z 08008KT 030V120 9999 BKN022 OVC027 11/08 Q1019=
LETN 43.20.05N 006.22.69WIN63TI 31.117km 27°NNE04:00:03ZAerodromo de La Curiscada (Tineo): LEAS 010300Z 08008KT 030V120 9999 BKN022 OVC027 11/08 Q1019=
EA1GGY 42.51.00N 006.18.51WIN62UU 32.812km 143°SE03:35:16ZWind 090°/001kn, Böen bis 002kn, Temp -1.67c, Regen 0.0mm, letzte 24h 0.8mm, seit 0h 0.8mm, Baro 1011.0h, Hum: 99%(3EA1GGY-1)
UI-View32 V2.03(2EA1GGY)

aprs.pl 5.0.011w DL3EL © 2006-2021 [7959458]